Roches Point, Ireland

2:14 AM IST on September 05, 2015 (GMT +0100)
cork | | Change Station
CLOSE
Current Station
Personal Weather Station
Location: Midleton, CORK
Elevation: 23 ft
Nearby Weather Stations

Elev 23 ft 51.92 °N, 8.18 °W | Updated 29 seconds ago

Mostly Cloudy
Mostly Cloudy
57.0 °F
Feels Like 57.0 °F
N
2.2
Wind Variable Wind from East
Gusts 3.8 mph

Today
High -- | Low -- °F
--% Chance of Precip.
Yesterday
High -- | Low -- °F
Precip. -- in
6:50 AM 8:11 PM
Waning Gibbous, 54% visible
Pressure 30.24 in
Visibility 6.2 miles
Clouds Few 1000 ft
Mostly Cloudy 3000 ft
Dew Point 53 °F
Humidity 85%
Rainfall 0.00 in
Snow Depth Not available.
UV 0 out of 12
Pollen Not available.
Air Quality Not available.
Flu Activity Not available.
METAR EICK 050100Z 31009KT 9999 FEW010 BKN030 12/11 Q1024 NOSIG
Pressure 30.24 in
Visibility 6.2 miles
Clouds Few 1000 ft
Mostly Cloudy 3000 ft
Dew Point 53 °F
Humidity 85%
Rainfall 0.00 in
Snow Depth Not available.
UV 0 out of 12
Pollen Not available.
Air Quality Not available.
Flu Activity Not available.
METAR EICK 050100Z 31009KT 9999 FEW010 BKN030 12/11 Q1024 NOSIG

10-Day Weather Forecast

×

Almanac

Astronomy

Sep. 05, 2015 Rise Set
Actual Time
Civil Twilight
Nautical Twilight
Astronomical Twilight
Moon
Length of Visible Light
Length of Day
Tomorrow will be .
, % of the Moon is Illuminated

Today's Extremes

Country Highs Country Lows

Community

WunderPhotos

Upload Photos

1,852,372 photos uploaded!

WunderBlogs® & News

Nearby

Air Quality

  Air Quality AQ Index Pollutant
Not available.

Snow Depth

Station Depth Elevation

Earthquake Activity

City Distance Mag. Time & Date
Minimum magnitude displayed is 2.5.

Coastal Water Temperatures

Place Temperature

Stations

Nearby Weather Stations

Station Location Temp. Windchill Dew Point Humidity Wind Precip. Elev Updated Type